Latest Weather Observations for Bundaberg

IDQ60801

Issued at 5:35 pm EST Wednesday 1 October 2014 (issued every 30 minutes, with the page automatically refreshed every 10 minutes)

About weather observations | Map of weather stations | Latest weather observations for QLD | Other Formats
Station Details ID: 039128 Name: BUNDABERG AERO Lat: -24.91 Lon: 152.32 Height: 30.82 m
Data from the previous 72 hours. | See also: Recent months at Bundaberg
Date/Time
EST
Temp
°C
App
Temp
°C
Dew
Point
Rel
Hum
%
Delta-T
°C
Wind Press
QNH
hPa
Press
MSL
hPa
Rain
since 9 am
mm
Dir
 
Spd
km/h
Gust
km/h
Spd
kts
Gust
kts
01/05:30pm 21.9 17.4 14.8 64 4.2 N 32 39 17 21 1014.6 1014.5 0.0
01/05:00pm 22.8 18.1 14.4 59 4.9 N 32 37 17 20 1014.4 1014.3 0.0
01/04:30pm 24.0 19.1 13.8 53 6.0 N 32 39 17 21 1014.5 1014.4 0.0
01/04:00pm 24.4 19.7 14.2 53 6.0 N 32 39 17 21 1014.4 1014.3 0.0
01/03:30pm 25.2 20.6 14.6 51 6.3 N 32 37 17 20 1014.4 1014.3 0.0
01/03:00pm 25.3 21.0 14.4 50 6.5 N 30 39 16 21 1014.6 1014.5 0.0
01/02:30pm 26.0 22.0 15.1 51 6.6 N 30 35 16 19 1014.8 1014.7 0.0
01/02:00pm 26.3 23.0 15.0 49 6.8 N 26 32 14 17 1015.2 1015.1 0.0
01/01:30pm 26.1 23.5 14.9 50 6.7 N 22 30 12 16 1015.7 1015.6 0.0
01/01:00pm 26.7 23.8 15.1 49 7.0 N 24 30 13 16 1016.3 1016.2 0.0
01/12:30pm 26.0 23.6 14.5 49 6.9 N 20 28 11 15 1016.6 1016.5 0.0
01/12:00pm 25.8 23.0 14.3 49 6.8 N 22 32 12 17 1016.9 1016.8 0.0
01/11:30am 26.3 23.9 14.4 48 7.1 N 20 28 11 15 1017.3 1017.2 0.0
01/11:00am 26.8 24.9 14.2 46 7.5 N 17 28 9 15 1017.9 1017.8 0.0
01/10:30am 25.8 24.1 13.6 47 7.2 NW 15 20 8 11 1018.4 1018.3 0.0
01/10:00am 25.1 22.6 13.6 49 6.7 NNW 19 22 10 12 1018.8 1018.7 0.0
01/09:30am 24.1 21.5 13.3 51 6.3 NNW 19 28 10 15 1019.1 1019.0 0.0
01/09:00am 23.2 20.5 13.4 54 5.7 NW 20 30 11 16 1019.3 1019.2 0.0
01/08:30am 22.9 20.3 13.7 56 5.4 NW 20 30 11 16 1019.3 1019.2 0.0
01/08:00am 22.4 19.5 14.0 59 4.9 NW 22 28 12 15 1019.3 1019.2 0.0
01/07:30am 20.7 18.8 14.1 66 3.8 NW 17 22 9 12 1019.3 1019.2 0.0
01/07:00am 18.3 16.4 13.0 71 3.0 NW 15 20 8 11 1019.2 1019.1 0.0
01/06:30am 16.6 15.6 13.3 81 1.9 NW 11 15 6 8 1019.0 1018.9 0.0
01/06:00am 14.8 13.6 12.8 88 1.1 NW 11 13 6 7 1018.9 1018.8 0.0
01/05:30am 13.6 12.1 11.8 89 1.0 NW 11 13 6 7 1018.8 1018.7 0.0
01/05:00am 13.5 12.3 11.6 88 1.0 WNW 9 11 5 6 1018.9 1018.8 0.0
01/04:30am 14.3 13.3 12.3 88 1.1 NW 9 13 5 7 1018.4 1018.3 0.0
01/04:00am 13.9 12.4 11.9 88 1.1 NW 11 13 6 7 1018.3 1018.2 0.0
01/03:30am 14.2 13.6 12.2 88 1.1 WNW 7 9 4 5 1018.5 1018.4 0.0
01/03:00am 14.4 13.8 12.4 88 1.1 NW 7 9 4 5 1018.6 1018.5 0.0
01/02:30am 14.1 13.0 12.0 87 1.1 W 9 9 5 5 1018.7 1018.6 0.0
01/02:00am 14.5 13.9 12.2 86 1.2 WNW 7 7 4 4 1018.8 1018.7 0.0
01/01:30am 14.7 14.2 12.6 87 1.2 WNW 7 9 4 5 1019.0 1018.9 0.0
01/01:00am 14.0 13.2 11.7 86 1.2 NW 7 9 4 5 1019.2 1019.1 0.0
01/12:30am 15.4 14.9 12.5 83 1.6 WNW 7 9 4 5 1019.4 1019.3 0.0
01/12:00am 15.1 14.0 11.9 81 1.7 NNW 9 11 5 6 1019.6 1019.5 0.0
 
Date/Time
EST
Temp
°C
App
Temp
°C
Dew
Point
Rel
Hum
%
Delta-T
°C
Wind Press
QNH
hPa
Press
MSL
hPa
Rain
since 9 am
mm
Dir
 
Spd
km/h
Gust
km/h
Spd
kts
Gust
kts
30/11:30pm 15.6 14.9 12.0 79 2.0 N 7 9 4 5 1019.7 1019.6 0.0
30/11:00pm 16.2 15.6 12.2 77 2.2 N 7 11 4 6 1019.8 1019.7 0.0
30/10:30pm 17.9 16.6 12.6 71 3.0 N 11 13 6 7 1019.9 1019.8 0.0
30/10:00pm 16.3 15.4 12.5 78 2.1 N 9 11 5 6 1019.9 1019.8 0.0
30/09:30pm 17.2 16.7 12.5 74 2.6 N 7 11 4 6 1020.0 1019.9 0.0
30/09:00pm 18.8 17.3 13.2 70 3.2 N 13 15 7 8 1020.0 1019.9 0.0
30/08:30pm 19.0 17.7 13.6 71 3.1 N 13 15 7 8 1019.9 1019.8 0.0
30/08:00pm 19.4 18.1 13.6 69 3.3 N 13 17 7 9 1019.7 1019.6 0.0
30/07:30pm 19.5 18.4 13.2 67 3.6 N 11 15 6 8 1019.3 1019.2 0.0
30/07:00pm 19.9 18.4 13.1 65 3.9 N 13 17 7 9 1019.1 1019.0 0.0
30/06:30pm 20.4 18.9 13.1 63 4.2 N 13 19 7 10 1018.8 1018.7 0.0
30/06:00pm 21.0 18.0 12.7 59 4.7 N 20 24 11 13 1018.5 1018.4 0.0
30/05:30pm 21.5 19.1 12.6 57 5.1 NNE 17 22 9 12 1018.4 1018.3 0.0
30/05:00pm 22.5 19.5 12.7 54 5.6 N 20 24 11 13 1018.2 1018.1 0.0
30/04:30pm 23.2 20.4 12.5 51 6.1 N 19 24 10 13 1018.1 1018.0 0.0
30/04:00pm 23.4 20.4 12.4 50 6.3 N 20 28 11 15 1018.0 1017.9 0.0
30/03:30pm 23.9 20.9 12.5 49 6.5 NNE 20 28 11 15 1017.9 1017.8 0.0
30/03:00pm 25.2 22.3 12.8 46 7.2 NE 20 24 11 13 1018.0 1017.9 0.0
30/02:30pm 26.0 24.0 13.8 47 7.2 NNE 17 28 9 15 1018.3 1018.2 0.0
30/02:00pm 24.6 21.7 12.2 46 7.1 N 19 22 10 12 1018.6 1018.5 0.0
30/01:30pm 25.3 22.7 13.2 47 7.1 NNE 19 28 10 15 1018.9 1018.8 0.0
30/01:00pm 25.4 22.8 13.3 47 7.1 N 19 28 10 15 1019.2 1019.1 0.0
30/12:30pm 25.2 23.2 14.0 49 6.6 N 17 30 9 16 1019.5 1019.4 0.0
30/12:00pm 24.4 21.7 13.6 51 6.3 N 20 24 11 13 1020.1 1020.0 0.0
30/11:30am 24.5 22.0 14.0 52 6.2 NNE 20 28 11 15 1020.5 1020.4 0.0
30/11:00am 24.9 23.0 14.1 51 6.4 N 17 30 9 16 1020.9 1020.8 0.0
30/10:30am 23.6 21.4 13.2 52 6.0 N 17 24 9 13 1021.1 1021.0 0.0
30/10:00am 23.9 22.5 13.4 51 6.1 N 13 22 7 12 1021.4 1021.3 0.0
30/09:30am 24.3 22.9 13.5 51 6.3 NNE 13 28 7 15 1021.6 1021.5 0.0
30/09:00am 22.5 21.4 13.0 55 5.4 N 11 19 6 10 1021.7 1021.6 0.0
30/08:30am 22.4 21.8 13.5 57 5.2 N 9 17 5 9 1021.7 1021.6 0.0
30/08:00am 21.2 21.2 13.6 62 4.4 N 6 11 3 6 1021.5 1021.4 0.0
30/07:30am 19.0 20.4 14.3 74 2.7 CALM 0 6 0 3 1021.4 1021.3 0.0
30/07:00am 16.7 17.6 14.0 84 1.5 SSW 2 6 1 3 1021.2 1021.1 0.0
30/06:30am 14.4 15.5 13.6 95 0.4 CALM 0 0 0 0 1021.0 1020.9 0.0
30/06:00am 12.1 12.5 11.2 94 0.5 CALM 0 0 0 0 1020.7 1020.6 0.0
30/05:30am 11.5 11.7 10.4 93 0.6 CALM 0 0 0 0 1020.4 1020.3 0.0
30/05:00am 11.9 12.2 11.0 94 0.5 CALM 0 6 0 3 1020.2 1020.1 0.0
30/04:30am 11.9 12.2 10.8 93 0.6 CALM 0 0 0 0 1019.8 1019.7 0.0
30/04:00am 12.1 12.5 11.2 94 0.5 CALM 0 0 0 0 1019.5 1019.4 0.0
30/03:30am 11.9 12.2 10.8 93 0.6 CALM 0 0 0 0 1019.4 1019.3 0.0
30/03:00am 12.0 12.2 10.6 91 0.7 CALM 0 0 0 0 1019.4 1019.3 0.0
30/02:30am 12.3 12.6 11.0 92 0.7 CALM 0 0 0 0 1019.6 1019.5 0.0
30/02:00am 12.4 12.6 10.6 89 0.9 CALM 0 0 0 0 1019.7 1019.6 0.0
30/01:30am 13.0 13.5 11.6 91 0.7 CALM 0 6 0 3 1019.7 1019.6 0.0
30/01:00am 13.3 13.8 11.7 90 0.9 CALM 0 0 0 0 1020.0 1019.9 0.0
30/12:30am 13.4 14.0 11.8 90 0.9 CALM 0 0 0 0 1020.2 1020.1 0.0
30/12:00am 13.7 14.3 11.9 89 1.0 CALM 0 6 0 3 1020.3 1020.2 0.0
 
Date/Time
EST
Temp
°C
App
Temp
°C
Dew
Point
Rel
Hum
%
Delta-T
°C
Wind Press
QNH
hPa
Press
MSL
hPa
Rain
since 9 am
mm
Dir
 
Spd
km/h
Gust
km/h
Spd
kts
Gust
kts
29/11:30pm 13.6 13.0 11.8 89 1.0 W 6 9 3 5 1020.4 1020.3 0.0
29/11:00pm 13.9 14.3 11.2 84 1.4 CALM 0 0 0 0 1020.6 1020.5 0.0
29/10:30pm 14.3 14.8 11.5 83 1.5 CALM 0 0 0 0 1020.5 1020.4 0.0
29/10:00pm 15.4 16.1 12.3 82 1.7 CALM 0 0 0 0 1020.6 1020.5 0.0
29/09:30pm 15.5 16.2 12.1 80 1.9 CALM 0 0 0 0 1020.5 1020.4 0.0
29/09:00pm 16.4 17.1 12.2 76 2.3 CALM 0 0 0 0 1020.5 1020.4 0.0
29/08:30pm 17.7 17.2 12.2 70 3.0 NE 6 7 3 4 1020.6 1020.5 0.0
29/08:00pm 18.4 17.9 12.6 69 3.2 NE 7 9 4 5 1020.4 1020.3 0.0
29/07:30pm 18.7 17.8 12.5 67 3.5 NE 9 13 5 7 1020.1 1020.0 0.0
29/07:00pm 19.2 18.4 12.9 67 3.5 NE 9 13 5 7 1019.6 1019.5 0.0
29/06:30pm 20.0 18.3 13.7 67 3.6 NNE 15 19 8 10 1019.2 1019.1 0.0
29/06:00pm 20.4 18.4 13.8 66 3.8 NNE 17 20 9 11 1018.8 1018.7 0.0
29/05:30pm 21.1 19.0 13.5 62 4.4 NNE 17 22 9 12 1018.6 1018.5 0.0
29/05:00pm 22.2 19.5 13.0 56 5.3 NE 19 24 10 13 1018.2 1018.1 0.0
29/04:30pm 23.2 20.1 11.6 48 6.5 NE 19 26 10 14 1018.0 1017.9 0.0
29/04:00pm 23.7 20.3 11.1 45 7.0 NE 20 26 11 14 1017.9 1017.8 0.0
29/03:30pm 24.7 21.4 11.6 44 7.4 ENE 20 28 11 15 1017.9 1017.8 0.0
29/03:00pm 24.7 21.6 12.3 46 7.1 E 20 28 11 15 1017.8 1017.7 0.0
29/02:30pm 24.7 21.0 11.6 44 7.4 NE 22 32 12 17 1017.9 1017.8 0.0
29/02:00pm 25.0 21.2 11.2 42 7.8 ENE 22 30 12 16 1018.0 1017.9 0.0
29/01:30pm 25.6 22.3 11.7 42 7.9 E 20 24 11 13 1018.2 1018.1 0.0
29/01:00pm 25.1 22.3 11.3 42 7.8 E 17 24 9 13 1018.7 1018.6 0.0
29/12:30pm 24.5 21.4 10.4 41 7.8 E 17 28 9 15 1019.1 1019.0 0.0
29/12:00pm 24.9 22.5 11.5 43 7.6 E 15 28 8 15 1019.6 1019.5 0.0
29/11:30am 24.2 21.9 11.9 46 7.0 SE 15 26 8 14 1020.1 1020.0 0.0
29/11:00am 23.8 21.3 11.2 45 7.0 ESE 15 24 8 13 1020.6 1020.5 0.0
29/10:30am 24.2 21.7 12.2 47 6.9 ENE 17 24 9 13 1020.9 1020.8 0.0
29/10:00am 23.2 20.9 11.6 48 6.5 ESE 15 24 8 13 1021.2 1021.1 0.0
29/09:30am 24.0 21.5 12.3 48 6.7 E 17 26 9 14 1021.3 1021.2 0.0
29/09:00am 23.8 21.9 13.1 51 6.2 ESE 15 24 8 13 1021.4 1021.3 0.0
29/08:30am 22.4 20.7 13.5 57 5.2 E 15 20 8 11 1021.5 1021.4 0.0
29/08:00am 20.5 19.7 13.9 66 3.8 SE 11 13 6 7 1021.5 1021.4 0.0
29/07:30am 18.6 18.1 13.7 73 2.8 S 9 11 5 6 1021.3 1021.2 0.0
29/07:00am 17.0 16.0 13.5 80 2.0 S 11 15 6 8 1020.9 1020.8 0.0
29/06:30am 15.5 14.8 13.2 86 1.3 S 9 11 5 6 1020.7 1020.6 0.0
29/06:00am 13.5 12.8 11.9 90 0.9 SSW 7 9 4 5 1020.3 1020.2 0.0
29/05:30am 13.3 13.0 11.4 88 1.0 S 4 9 2 5 1020.0 1019.9 0.0
29/05:00am 14.0 12.9 11.9 87 1.1 S 9 11 5 6 1019.7 1019.6 0.0
29/04:30am 14.3 12.8 12.0 86 1.2 S 11 13 6 7 1019.5 1019.4 0.0
29/04:00am 14.7 13.4 12.4 86 1.3 S 11 15 6 8 1019.5 1019.4 0.0
29/03:30am 14.4 13.0 12.3 87 1.1 S 11 15 6 8 1019.5 1019.4 0.0
29/03:00am 14.5 12.8 12.4 87 1.1 S 13 15 7 8 1019.6 1019.5 0.0
29/02:30am 14.5 13.2 12.4 87 1.1 S 11 13 6 7 1019.7 1019.6 0.0
29/02:00am 14.5 13.2 12.4 87 1.1 S 11 13 6 7 1020.1 1020.0 0.0
29/01:30am 15.0 14.1 12.7 86 1.3 S 9 11 5 6 1020.4 1020.3 0.0
29/01:00am 15.2 14.0 12.9 86 1.3 S 11 13 6 7 1020.7 1020.6 0.0
29/12:30am 15.4 14.2 12.9 85 1.4 S 11 13 6 7 1020.9 1020.8 0.0
29/12:00am 15.2 14.4 12.9 86 1.3 S 9 11 5 6 1021.1 1021.0 0.0
 
Date/Time
EST
Temp
°C
App
Temp
°C
Dew
Point
Rel
Hum
%
Delta-T
°C
Wind Press
QNH
hPa
Press
MSL
hPa
Rain
since 9 am
mm
Dir
 
Spd
km/h
Gust
km/h
Spd
kts
Gust
kts
28/11:30pm 15.2 14.5 13.2 88 1.1 S 9 11 5 6 1021.2 1021.1 0.0
28/11:00pm 14.9 15.8 12.9 88 1.1 CALM 0 6 0 3 1021.2 1021.1 0.0
28/10:30pm 14.8 14.5 12.7 87 1.2 WSW 6 7 3 4 1021.3 1021.2 0.0
28/10:00pm 15.9 15.5 13.0 83 1.6 S 7 9 4 5 1021.2 1021.1 0.0
28/09:30pm 16.5 16.2 13.2 81 1.8 SE 7 9 4 5 1021.1 1021.0 0.0
28/09:00pm 17.5 17.2 13.2 76 2.4 SE 7 11 4 6 1021.1 1021.0 0.0
28/08:30pm 17.9 17.0 13.6 76 2.4 ESE 11 15 6 8 1020.7 1020.6 0.0
28/08:00pm 17.9 17.0 13.6 76 2.4 E 11 13 6 7 1020.4 1020.3 0.0
28/07:30pm 18.3 17.7 13.6 74 2.7 E 9 11 5 6 1020.0 1019.9 0.0
28/07:00pm 18.8 18.1 14.3 75 2.6 E 11 15 6 8 1019.5 1019.4 0.0
28/06:30pm 19.2 18.9 14.5 74 2.7 E 9 11 5 6 1019.4 1019.3 0.0
28/06:00pm 20.1 18.9 14.0 68 3.5 E 13 19 7 10 1019.2 1019.1 0.0

Other Formats:

Comma delimited format used in spreadsheet applications
http://www.bom.gov.au/fwo/IDQ60801/IDQ60801.94387.axf

JavaScript Object Notation format (JSON) in row-major order
http://www.bom.gov.au/fwo/IDQ60801/IDQ60801.94387.json